createdAt,value
2022-09-22T00:02:05.846Z,64.42
2022-09-22T00:04:39.330Z,64.83
2022-09-22T00:07:09.300Z,66.22
2022-09-22T00:09:48.933Z,65.61
2022-09-22T00:12:45.795Z,65.38
2022-09-22T00:15:18.401Z,65.93
2022-09-22T00:17:55.986Z,64.60
2022-09-22T00:21:02.641Z,64.47
2022-09-22T00:23:33.176Z,64.13
2022-09-22T00:26:10.323Z,63.29
2022-09-22T00:29:10.666Z,61.33
2022-09-22T00:31:47.689Z,62.71
2022-09-22T00:34:30.072Z,64.42
2022-09-22T00:40:41.978Z,63.06
2022-09-22T00:48:03.005Z,64.04
2022-09-22T00:50:37.541Z,64.38
2022-09-22T00:53:22.169Z,63.78
2022-09-22T00:56:28.576Z,66.71
2022-09-22T00:59:05.200Z,68.37
2022-09-22T01:01:43.015Z,69.88
2022-09-22T01:04:32.891Z,70.30
2022-09-22T01:07:04.799Z,68.70
2022-09-22T01:09:39.540Z,69.03
2022-09-22T01:12:27.936Z,70.28
2022-09-22T01:15:21.349Z,66.71
2022-09-22T01:22:48.490Z,68.59
2022-09-22T01:25:58.719Z,70.54
2022-09-22T01:29:29.590Z,72.03
2022-09-22T01:32:32.512Z,71.88
2022-09-22T01:35:47.551Z,73.87
2022-09-22T01:38:23.443Z,73.13
2022-09-22T01:41:04.892Z,71.55
2022-09-22T01:43:55.282Z,70.63
2022-09-22T01:46:34.311Z,73.94
2022-09-22T01:50:09.134Z,75.48
2022-09-22T01:52:47.106Z,73.85
2022-09-22T01:55:36.828Z,70.63
2022-09-22T01:58:25.524Z,69.57
2022-09-22T02:01:12.145Z,71.02
2022-09-22T02:03:53.827Z,69.44
2022-09-22T02:06:33.545Z,67.27
2022-09-22T02:09:13.552Z,66.91
2022-09-22T02:11:51.066Z,67.64
2022-09-22T02:14:19.196Z,67.15
2022-09-22T02:17:16.130Z,69.16
2022-09-22T02:19:46.060Z,69.98
2022-09-22T02:22:13.749Z,68.92
2022-09-22T02:24:45.613Z,68.21
2022-09-22T02:27:28.243Z,68.65
2022-09-22T02:30:28.135Z,68.32
2022-09-22T02:33:14.697Z,68.04
2022-09-22T02:35:49.762Z,68.51
2022-09-22T02:39:31.849Z,70.63
2022-09-22T02:42:51.912Z,69.43
2022-09-22T02:46:10.071Z,68.69
2022-09-22T02:49:22.868Z,70.04
2022-09-22T02:52:43.940Z,73.75
2022-09-22T02:55:13.716Z,74.22
2022-09-22T02:57:43.784Z,73.54
2022-09-22T03:00:12.394Z,72.30
2022-09-22T03:03:23.158Z,68.71
2022-09-22T03:05:50.840Z,70.33
2022-09-22T03:08:19.747Z,68.45
2022-09-22T03:10:47.499Z,67.53
2022-09-22T03:13:16.924Z,66.58
2022-09-22T03:16:12.647Z,67.59
2022-09-22T03:19:31.718Z,67.32
2022-09-22T03:22:01.885Z,67.52
2022-09-22T03:24:29.577Z,64.56
2022-09-22T03:27:25.054Z,65.12
2022-09-22T03:30:26.412Z,66.18
2022-09-22T03:32:54.146Z,63.85
2022-09-22T03:35:25.264Z,61.98
2022-09-22T03:38:00.288Z,64.13
2022-09-22T03:40:28.191Z,64.19
2022-09-22T03:43:30.766Z,64.44
2022-09-22T03:46:04.284Z,64.89
2022-09-22T03:48:34.477Z,65.18
2022-09-22T03:51:54.178Z,64.58
2022-09-22T03:54:21.832Z,62.10
2022-09-22T03:56:50.446Z,62.00
2022-09-22T03:59:20.537Z,62.50
2022-09-22T04:01:58.958Z,62.58
2022-09-22T04:04:26.752Z,63.86
2022-09-22T04:06:54.575Z,61.80
2022-09-22T04:09:24.963Z,63.01
2022-09-22T04:12:15.834Z,62.92
2022-09-22T04:14:43.795Z,63.62
2022-09-22T04:17:11.392Z,63.12
2022-09-22T04:19:39.219Z,64.74
2022-09-22T04:22:06.934Z,66.46
2022-09-22T04:24:34.703Z,65.66
2022-09-22T04:27:19.109Z,64.68
2022-09-22T04:30:22.806Z,61.52
2022-09-22T04:32:50.381Z,63.40
2022-09-22T04:35:47.963Z,63.85
2022-09-22T04:38:36.114Z,64.08
2022-09-22T04:41:03.864Z,66.20
2022-09-22T04:43:31.549Z,67.77
2022-09-22T04:49:18.847Z,65.38
2022-09-22T04:51:46.446Z,64.87
2022-09-22T04:54:16.553Z,65.28
2022-09-22T04:56:44.494Z,63.96
2022-09-22T05:00:03.954Z,62.00
2022-09-22T05:02:31.745Z,63.90
2022-09-22T05:05:15.848Z,62.91
2022-09-22T05:07:46.301Z,63.03
2022-09-22T05:10:37.058Z,62.25
2022-09-22T05:13:53.614Z,62.71
2022-09-22T05:16:28.394Z,60.94
2022-09-22T05:19:05.711Z,59.27
2022-09-22T05:32:39.539Z,60.95
2022-09-22T05:33:59.774Z,59.22
2022-09-22T05:36:50.457Z,58.19
2022-09-22T05:40:36.660Z,60.69
2022-09-22T05:42:25.304Z,60.67
2022-09-22T05:45:36.356Z,60.80
2022-09-22T05:48:09.348Z,59.62
2022-09-22T05:50:45.579Z,59.64
2022-09-22T05:53:34.989Z,60.64
2022-09-22T05:56:16.170Z,57.72
2022-09-22T05:58:47.780Z,57.45
2022-09-22T06:01:17.354Z,57.50
2022-09-22T06:03:51.211Z,58.51
2022-09-22T06:06:19.310Z,57.53
2022-09-22T06:20:38.907Z,56.06
2022-09-22T06:23:06.409Z,52.71
2022-09-22T06:25:33.901Z,51.75
2022-09-22T06:28:04.873Z,52.09
2022-09-22T06:30:34.068Z,51.75
2022-09-22T06:33:02.187Z,49.71
2022-09-22T06:35:37.592Z,48.99
2022-09-22T06:38:07.848Z,48.90
2022-09-22T06:40:36.480Z,48.29
2022-09-22T06:43:15.333Z,55.50
2022-09-22T06:45:42.951Z,52.92
2022-09-22T06:48:13.287Z,47.95
2022-09-22T06:50:41.194Z,49.11
2022-09-22T06:53:11.793Z,52.94
2022-09-22T06:55:40.531Z,54.48
2022-09-22T06:58:09.516Z,50.53
2022-09-22T07:00:37.382Z,48.50
2022-09-22T07:03:20.626Z,49.95
2022-09-22T07:06:01.120Z,48.58
2022-09-22T07:08:30.926Z,48.76
2022-09-22T07:11:04.345Z,47.79
2022-09-22T07:13:32.555Z,44.89
2022-09-22T07:16:04.727Z,46.30
2022-09-22T07:18:32.213Z,47.53
2022-09-22T07:21:05.488Z,44.21
2022-09-22T07:23:35.704Z,44.23
2022-09-22T07:26:05.863Z,47.71
2022-09-22T07:28:35.394Z,43.72
2022-09-22T07:31:07.716Z,44.58
2022-09-22T07:33:36.466Z,42.31
2022-09-22T07:36:14.325Z,41.55
2022-09-22T07:38:43.998Z,41.22
2022-09-22T07:41:19.231Z,42.13
2022-09-22T07:43:48.847Z,42.14
2022-09-22T07:46:16.302Z,46.77
2022-09-22T07:48:49.874Z,41.92
2022-09-22T07:51:23.041Z,41.20
2022-09-22T07:54:08.564Z,41.15
2022-09-22T07:56:40.219Z,42.00
2022-09-22T07:59:10.904Z,41.21
2022-09-22T08:01:44.475Z,40.82
2022-09-22T08:04:15.732Z,40.03
2022-09-22T08:06:44.654Z,38.43
2022-09-22T08:09:13.615Z,40.08
2022-09-22T08:11:48.545Z,39.93
2022-09-22T08:14:17.498Z,41.16
2022-09-22T08:16:46.035Z,37.21
2022-09-22T08:19:15.848Z,37.55
2022-09-22T08:21:48.908Z,37.33
2022-09-22T08:24:22.724Z,39.53
2022-09-22T08:26:52.643Z,37.85
2022-09-22T08:29:21.062Z,37.02
2022-09-22T08:31:49.545Z,38.84
2022-09-22T08:34:18.117Z,36.36
2022-09-22T08:36:48.237Z,33.39
2022-09-22T08:39:17.389Z,32.60
2022-09-22T08:42:22.095Z,34.02
2022-09-22T08:45:00.275Z,35.94
2022-09-22T08:47:57.348Z,31.41
2022-09-22T08:51:19.379Z,34.33
2022-09-22T08:53:50.457Z,31.67
2022-09-22T08:56:36.793Z,29.72
2022-09-22T08:59:12.864Z,31.36
2022-09-22T09:01:55.194Z,31.08
2022-09-22T09:07:22.884Z,33.45
2022-09-22T09:10:03.385Z,30.10
2022-09-22T09:12:48.836Z,28.53
2022-09-22T09:15:53.893Z,28.80
2022-09-22T09:18:29.025Z,28.04
2022-09-22T09:20:59.490Z,30.29
2022-09-22T09:26:27.589Z,27.68
2022-09-22T09:29:03.715Z,25.62
2022-09-22T09:31:39.752Z,27.05
2022-09-22T09:34:18.575Z,29.04
2022-09-22T09:36:52.843Z,28.13
2022-09-22T09:39:27.876Z,28.43
2022-09-22T09:41:57.287Z,28.63
2022-09-22T09:44:32.708Z,27.17
2022-09-22T09:47:09.191Z,29.06
2022-09-22T09:49:36.613Z,25.46
2022-09-22T09:52:11.237Z,25.23
2022-09-22T09:54:39.110Z,26.86
2022-09-22T09:57:10.717Z,29.92
2022-09-22T09:59:58.980Z,28.22
2022-09-22T10:02:35.933Z,31.84
2022-09-22T10:05:10.362Z,29.04
2022-09-22T10:07:44.540Z,28.04
2022-09-22T10:10:30.114Z,29.82
2022-09-22T10:13:43.304Z,35.70
2022-09-22T10:16:24.993Z,32.90
2022-09-22T10:19:23.987Z,35.26
2022-09-22T10:21:51.499Z,40.34
2022-09-22T10:24:31.660Z,33.13
2022-09-22T10:27:02.415Z,34.73
2022-09-22T10:29:32.819Z,29.72
2022-09-22T10:32:02.832Z,33.71
2022-09-22T10:37:15.455Z,33.00
2022-09-22T10:39:53.093Z,32.50
2022-09-22T10:42:37.759Z,33.42
2022-09-22T10:45:07.240Z,36.36
2022-09-22T10:47:57.619Z,36.24
2022-09-22T10:50:49.343Z,36.61
2022-09-22T10:53:43.788Z,36.55
2022-09-22T10:56:20.003Z,38.22
2022-09-22T10:59:08.335Z,38.90
2022-09-22T11:02:02.643Z,39.74
2022-09-22T11:04:50.584Z,38.00
2022-09-22T11:07:42.865Z,39.21
2022-09-22T11:11:11.199Z,38.99
2022-09-22T11:13:49.067Z,38.01
2022-09-22T11:16:35.013Z,41.59
2022-09-22T11:19:20.924Z,39.09
2022-09-22T11:21:54.172Z,38.02
2022-09-22T11:24:40.299Z,36.67
2022-09-22T11:27:15.973Z,32.29
2022-09-22T11:30:10.681Z,31.51
2022-09-22T11:32:54.817Z,33.56
2022-09-22T11:35:34.460Z,32.53
2022-09-22T11:38:26.582Z,34.27
2022-09-22T11:41:04.524Z,33.42
2022-09-22T11:43:57.039Z,31.36
2022-09-22T11:46:57.748Z,33.20
2022-09-22T11:49:46.393Z,35.68
2022-09-22T11:52:28.821Z,33.39
2022-09-22T11:55:23.655Z,33.80
2022-09-22T11:57:57.013Z,34.52
2022-09-22T12:00:24.942Z,34.00
2022-09-22T12:03:01.914Z,31.09
2022-09-22T12:05:47.976Z,37.77
2022-09-22T12:08:21.090Z,34.52
2022-09-22T12:10:52.013Z,34.83
2022-09-22T12:13:28.195Z,34.28
2022-09-22T12:16:07.205Z,32.84
2022-09-22T12:18:45.400Z,34.09
2022-09-22T12:21:31.028Z,35.95
2022-09-22T12:24:09.353Z,31.56
2022-09-22T12:26:41.096Z,36.50
2022-09-22T12:29:11.419Z,33.13
2022-09-22T12:31:40.430Z,34.81
2022-09-22T12:34:20.086Z,37.95
2022-09-22T12:36:50.657Z,33.12
2022-09-22T12:39:24.185Z,34.82
2022-09-22T12:41:57.989Z,33.56
2022-09-22T12:44:30.564Z,35.49
2022-09-22T12:47:07.986Z,33.68
2022-09-22T12:49:51.483Z,34.91
2022-09-22T12:52:57.395Z,34.21
2022-09-22T12:55:41.229Z,32.83
2022-09-22T12:58:20.598Z,32.39
2022-09-22T13:00:52.756Z,34.53
2022-09-22T13:03:28.300Z,34.07
2022-09-22T13:06:22.700Z,32.13
2022-09-22T13:08:53.027Z,32.52
2022-09-22T13:12:01.253Z,33.44
2022-09-22T13:15:19.858Z,31.25
2022-09-22T13:17:50.090Z,32.23
2022-09-22T13:20:30.381Z,33.21
2022-09-22T13:23:12.135Z,32.66
2022-09-22T13:25:41.089Z,33.40
2022-09-22T13:28:08.370Z,32.23
2022-09-22T13:30:37.824Z,31.75
2022-09-22T13:33:05.738Z,32.52
2022-09-22T13:35:39.051Z,30.63
2022-09-22T13:38:10.815Z,30.93
2022-09-22T13:40:38.213Z,34.63
2022-09-22T13:43:10.493Z,32.61
2022-09-22T13:45:39.956Z,33.12
2022-09-22T13:48:12.145Z,32.49
2022-09-22T13:50:53.947Z,31.73
2022-09-22T13:53:22.583Z,32.93
2022-09-22T13:55:53.991Z,33.91
2022-09-22T13:58:35.379Z,32.64
2022-09-22T14:01:19.875Z,31.29
2022-09-22T14:03:48.676Z,32.42
2022-09-22T14:06:19.454Z,31.99
2022-09-22T14:08:49.244Z,33.96
2022-09-22T14:11:21.583Z,33.56
2022-09-22T14:13:56.820Z,34.21
2022-09-22T14:16:30.039Z,32.67
2022-09-22T14:19:04.371Z,32.12
2022-09-22T14:21:40.245Z,32.56
2022-09-22T14:24:08.014Z,31.59
2022-09-22T14:26:38.904Z,33.67
2022-09-22T14:29:31.905Z,32.60
2022-09-22T14:32:22.774Z,30.63
2022-09-22T14:34:56.497Z,32.01
2022-09-22T14:37:32.309Z,31.86
2022-09-22T14:40:03.618Z,33.40
2022-09-22T14:42:33.258Z,31.39
2022-09-22T14:45:09.597Z,36.36
2022-09-22T14:47:41.684Z,34.92
2022-09-22T14:50:09.282Z,34.13
2022-09-22T14:52:47.036Z,34.77
2022-09-22T15:02:09.616Z,36.57
2022-09-22T15:04:44.736Z,37.48
2022-09-22T15:07:25.892Z,39.71
2022-09-22T15:09:57.672Z,36.89
2022-09-22T15:12:37.838Z,36.62
2022-09-22T15:15:16.535Z,37.29
2022-09-22T15:18:16.140Z,36.54
2022-09-22T15:20:53.607Z,36.13
2022-09-22T15:23:41.000Z,36.04
2022-09-22T15:26:42.002Z,36.43
2022-09-22T15:29:11.948Z,36.72
2022-09-22T15:31:39.832Z,36.05
2022-09-22T15:34:10.461Z,37.14
2022-09-22T15:36:44.191Z,35.94
2022-09-22T15:39:22.952Z,36.97
2022-09-22T15:41:52.294Z,36.73
2022-09-22T15:44:22.849Z,35.81
2022-09-22T15:46:54.782Z,38.77
2022-09-22T15:49:26.589Z,37.33
2022-09-22T15:51:57.656Z,36.12
2022-09-22T15:54:31.120Z,39.42
2022-09-22T15:57:00.098Z,39.41
2022-09-22T15:59:32.411Z,39.88
2022-09-22T16:02:01.335Z,38.42
2022-09-22T16:04:32.455Z,36.66
2022-09-22T16:07:04.078Z,36.35
2022-09-22T16:09:32.296Z,36.94
2022-09-22T16:12:01.084Z,38.77
2022-09-22T16:14:28.908Z,38.02
2022-09-22T16:16:56.720Z,40.95
2022-09-22T16:19:26.064Z,39.30
2022-09-22T16:21:57.225Z,36.88
2022-09-22T16:24:28.066Z,38.67
2022-09-22T16:26:56.293Z,37.46
2022-09-22T16:29:25.165Z,38.43
2022-09-22T16:31:52.725Z,38.08
2022-09-22T16:34:21.298Z,40.31
2022-09-22T16:36:48.923Z,38.19
2022-09-22T16:39:17.321Z,37.73
2022-09-22T16:41:45.944Z,39.77
2022-09-22T16:44:13.701Z,37.31
2022-09-22T16:46:41.248Z,36.91
2022-09-22T16:49:12.135Z,37.15
2022-09-22T16:51:42.302Z,36.90
2022-09-22T16:54:14.969Z,38.02
2022-09-22T16:56:45.471Z,38.21
2022-09-22T16:59:16.545Z,38.58
2022-09-22T17:01:44.369Z,39.98
2022-09-22T17:04:15.839Z,42.62
2022-09-22T17:06:43.804Z,43.97
2022-09-22T17:09:13.114Z,43.32
2022-09-22T17:11:43.671Z,40.37
2022-09-22T17:14:14.108Z,40.29
2022-09-22T17:16:45.848Z,39.91
2022-09-22T17:19:20.105Z,39.92
2022-09-22T17:21:49.524Z,43.80
2022-09-22T17:24:17.407Z,45.10
2022-09-22T17:26:50.712Z,43.39
2022-09-22T17:29:26.637Z,44.64
2022-09-22T17:32:00.347Z,46.31
2022-09-22T17:34:29.016Z,45.50
2022-09-22T17:36:57.499Z,46.27
2022-09-22T17:39:29.126Z,45.46
2022-09-22T17:41:56.713Z,45.57
2022-09-22T17:44:28.556Z,47.03
2022-09-22T17:47:18.463Z,44.04
2022-09-22T17:50:04.880Z,45.36
2022-09-22T17:52:32.450Z,47.60
2022-09-22T17:55:07.092Z,49.07
2022-09-22T17:57:45.505Z,49.42
2022-09-22T18:00:21.276Z,49.02
2022-09-22T18:02:51.127Z,48.58
2022-09-22T18:05:25.543Z,47.94
2022-09-22T18:07:57.917Z,50.54
2022-09-22T18:10:32.254Z,51.09
2022-09-22T18:13:01.371Z,51.11
2022-09-22T18:15:29.398Z,52.58
2022-09-22T18:17:58.332Z,53.04
2022-09-22T18:20:27.516Z,53.52
2022-09-22T18:22:56.122Z,54.30
2022-09-22T18:25:25.808Z,55.53
2022-09-22T18:27:56.444Z,56.30
2022-09-22T18:30:27.802Z,56.77
2022-09-22T18:32:56.730Z,55.74
2022-09-22T18:35:24.902Z,55.98
2022-09-22T18:37:52.532Z,56.15
2022-09-22T18:40:20.097Z,56.58
2022-09-22T18:42:47.646Z,58.37
2022-09-22T18:45:15.284Z,57.62
2022-09-22T18:47:43.570Z,57.83
2022-09-22T18:50:11.970Z,58.61
2022-09-22T18:52:43.196Z,59.06
2022-09-22T18:55:12.009Z,58.45
2022-09-22T18:57:39.605Z,58.26
2022-09-22T19:00:08.042Z,58.63
2022-09-22T19:02:35.643Z,59.44
2022-09-22T19:05:05.830Z,59.12
2022-09-22T19:07:42.886Z,60.15
2022-09-22T19:10:26.352Z,60.84
2022-09-22T19:12:56.010Z,60.34
2022-09-22T19:15:26.826Z,61.70
2022-09-22T19:17:54.353Z,61.18
2022-09-22T19:20:24.054Z,60.49
2022-09-22T19:22:52.937Z,59.59
2022-09-22T19:25:22.110Z,61.31
2022-09-22T19:27:53.928Z,59.87
2022-09-22T19:30:24.914Z,60.49
2022-09-22T19:32:57.663Z,61.30
2022-09-22T19:35:26.340Z,60.18
2022-09-22T19:37:54.117Z,58.77
2022-09-22T19:40:24.448Z,60.49
2022-09-22T19:42:54.492Z,59.55
2022-09-22T19:45:24.011Z,61.56
2022-09-22T19:47:56.097Z,59.53
2022-09-22T19:50:24.438Z,59.49
2022-09-22T19:52:52.570Z,59.29
2022-09-22T19:55:21.348Z,58.23
2022-09-22T19:57:52.917Z,58.00
2022-09-22T20:00:26.178Z,59.09
2022-09-22T20:02:58.587Z,59.49
2022-09-22T20:05:38.455Z,59.95
2022-09-22T20:08:08.432Z,60.57
2022-09-22T20:10:37.196Z,59.83
2022-09-22T20:13:46.278Z,60.53
2022-09-22T20:16:14.210Z,59.80
2022-09-22T20:18:42.107Z,59.81
2022-09-22T20:21:23.380Z,61.14
2022-09-22T20:23:56.307Z,61.08
2022-09-22T20:26:24.559Z,59.88
2022-09-22T20:28:52.777Z,59.79
2022-09-22T20:31:20.489Z,60.78
2022-09-22T20:33:48.369Z,61.05
2022-09-22T20:36:16.574Z,59.80
2022-09-22T20:38:51.523Z,60.77
2022-09-22T20:41:22.311Z,62.33
2022-09-22T20:43:51.219Z,63.32
2022-09-22T20:46:21.697Z,61.40
2022-09-22T20:48:49.609Z,60.27
2022-09-22T20:51:20.042Z,60.35
2022-09-22T20:53:47.929Z,60.06
2022-09-22T20:56:20.993Z,61.13
2022-09-22T20:58:48.686Z,61.57
2022-09-22T21:01:17.799Z,60.64
2022-09-22T21:03:45.517Z,61.10
2022-09-22T21:06:13.523Z,62.67
2022-09-22T21:09:02.109Z,63.94
2022-09-22T21:11:30.539Z,64.74
2022-09-22T21:14:02.054Z,67.03
2022-09-22T21:16:34.630Z,67.23
2022-09-22T21:19:02.638Z,64.81
2022-09-22T21:21:32.634Z,63.85
2022-09-22T21:24:02.032Z,62.09
2022-09-22T21:26:31.019Z,62.96
2022-09-22T21:28:59.613Z,61.38
2022-09-22T21:31:28.004Z,61.30
2022-09-22T21:33:55.959Z,60.67
2022-09-22T21:36:24.422Z,60.89
2022-09-22T21:38:57.330Z,60.61
2022-09-22T21:41:27.413Z,61.65
2022-09-22T21:43:55.651Z,61.27
2022-09-22T21:46:26.264Z,62.45
2022-09-22T21:48:59.314Z,64.51
2022-09-22T21:51:29.395Z,63.14
2022-09-22T21:53:56.966Z,62.70
2022-09-22T21:56:25.837Z,62.35
2022-09-22T21:58:55.214Z,62.94
2022-09-22T22:01:23.989Z,62.70
2022-09-22T22:03:53.500Z,63.06
2022-09-22T22:06:23.314Z,63.94
2022-09-22T22:09:00.806Z,62.16
2022-09-22T22:11:49.438Z,62.61
2022-09-22T22:14:19.513Z,62.82
2022-09-22T22:16:50.053Z,63.33
2022-09-22T22:19:20.440Z,63.71
2022-09-22T22:21:50.849Z,63.92
2022-09-22T22:24:40.863Z,63.29
2022-09-22T22:27:10.506Z,63.27
2022-09-22T22:29:41.281Z,62.39
2022-09-22T22:32:10.644Z,62.37
2022-09-22T22:34:38.281Z,63.83
2022-09-22T22:37:09.757Z,64.47
2022-09-22T22:39:39.981Z,63.33
2022-09-22T22:42:07.589Z,63.68
2022-09-22T22:44:35.344Z,63.51
2022-09-22T22:47:02.749Z,63.52
2022-09-22T22:49:33.245Z,63.77
2022-09-22T22:52:03.303Z,63.24
2022-09-22T22:54:33.933Z,62.66
2022-09-22T22:57:01.381Z,63.45
2022-09-22T22:59:30.000Z,62.76
2022-09-22T23:01:57.506Z,63.08
2022-09-22T23:04:25.238Z,63.57
2022-09-22T23:06:52.648Z,63.66
2022-09-22T23:09:21.424Z,63.71
2022-09-22T23:11:49.156Z,63.04
2022-09-22T23:14:18.956Z,64.40
2022-09-22T23:16:49.416Z,63.13
2022-09-22T23:19:18.335Z,63.46
2022-09-22T23:21:46.799Z,63.41
2022-09-22T23:24:16.780Z,63.51
2022-09-22T23:26:46.005Z,63.90
2022-09-22T23:29:13.888Z,65.08
2022-09-22T23:31:41.396Z,65.27
2022-09-22T23:34:08.916Z,65.04
2022-09-22T23:36:36.378Z,65.50
2022-09-22T23:39:04.614Z,65.89
2022-09-22T23:41:34.541Z,65.78
2022-09-22T23:44:03.167Z,65.57
2022-09-22T23:46:31.837Z,66.16
2022-09-22T23:49:00.254Z,65.49
2022-09-22T23:51:28.566Z,66.40
2022-09-22T23:53:56.490Z,66.58
2022-09-22T23:56:24.716Z,66.76
2022-09-22T23:58:52.699Z,66.05
